Time;durP1;ratioP1;P1;durP2;ratioP2;P2;SDS_P1;SDS_P2;PMS_P1;PMS_P2;Temp;Humidity;BMP_temperature;BMP_pressure;BME280_temperature;BME280_humidity;BME280_pressure;Samples;Min_cycle;Max_cycle;Signal;HPM_P1;HPM_P2
2021/12/14 00:01:20;;;;;;;24.10;17.52;;;8.10;99.90;;;;;;5029989;28;20033;-81
2021/12/14 00:03:49;;;;;;;22.45;17.23;;;8.00;99.90;;;;;;5031253;28;20520;-80
2021/12/14 00:06:17;;;;;;;25.85;18.63;;;8.00;99.90;;;;;;5029152;28;20384;-82
2021/12/14 00:08:52;;;;;;;26.45;18.85;;;8.00;99.90;;;;;;5023211;28;20553;-81
2021/12/14 00:14:00;;;;;;;24.63;18.98;;;7.90;99.90;;;;;;5017587;28;20442;-80
2021/12/14 00:16:26;;;;;;;23.15;17.52;;;7.90;99.90;;;;;;5023730;28;20429;-80
2021/12/14 00:18:51;;;;;;;25.75;18.63;;;8.00;99.90;;;;;;5035994;28;20063;-80
2021/12/14 00:21:29;;;;;;;22.70;17.88;;;7.90;99.90;;;;;;5035436;28;20029;-80
2021/12/14 00:24:07;;;;;;;25.17;18.42;;;8.00;99.90;;;;;;5008972;28;20048;-79
2021/12/14 00:26:49;;;;;;;24.88;18.88;;;8.00;99.90;;;;;;5003025;28;20026;-80
2021/12/14 00:29:32;;;;;;;26.55;18.77;;;7.90;99.90;;;;;;5017778;28;20117;-78
2021/12/14 00:32:04;;;;;;;25.58;18.35;;;7.90;99.90;;;;;;5001129;28;20034;-78
2021/12/14 00:34:43;;;;;;;24.80;18.70;;;7.90;99.90;;;;;;5011441;28;20104;-78
2021/12/14 00:37:13;;;;;;;24.55;17.67;;;7.90;99.90;;;;;;5015735;28;20108;-78
2021/12/14 00:39:40;;;;;;;25.15;18.75;;;7.90;99.90;;;;;;5019154;28;20038;-78
2021/12/14 00:42:06;;;;;;;23.60;17.50;;;7.90;99.90;;;;;;5015065;28;20040;-78
2021/12/14 00:44:33;;;;;;;23.77;17.00;;;7.90;99.90;;;;;;5018942;28;20509;-78
2021/12/14 00:46:59;;;;;;;25.38;17.65;;;8.00;99.90;;;;;;5016912;28;20044;-76
2021/12/14 00:49:25;;;;;;;26.30;19.25;;;8.00;99.90;;;;;;5016255;28;20061;-79
2021/12/14 00:51:51;;;;;;;22.75;18.17;;;8.00;99.90;;;;;;5017821;28;20037;-78
2021/12/14 00:54:18;;;;;;;24.80;17.83;;;8.00;99.90;;;;;;5021767;28;20025;-79
2021/12/14 00:56:45;;;;;;;24.02;18.02;;;8.00;99.90;;;;;;5018678;28;20060;-78
2021/12/14 00:59:13;;;;;;;23.92;17.50;;;8.00;99.90;;;;;;5004085;28;20041;-80
2021/12/14 01:01:56;;;;;;;22.92;17.67;;;8.10;99.90;;;;;;5003561;28;20033;-80
2021/12/14 01:04:28;;;;;;;25.58;18.13;;;8.00;99.90;;;;;;5030776;28;20040;-80
2021/12/14 01:06:55;;;;;;;21.30;16.45;;;8.00;99.90;;;;;;5010781;28;20031;-79
2021/12/14 01:09:31;;;;;;;21.83;16.35;;;8.00;99.90;;;;;;5031203;28;20409;-78
2021/12/14 01:12:04;;;;;;;21.13;15.23;;;8.00;99.90;;;;;;5015307;28;20064;-80
2021/12/14 01:14:41;;;;;;;19.15;14.63;;;8.00;99.90;;;;;;5019473;28;20516;-81
2021/12/14 01:17:25;;;;;;;19.20;15.80;;;8.00;99.90;;;;;;5001947;28;20037;-81
2021/12/14 01:19:55;;;;;;;22.92;15.80;;;8.00;99.90;;;;;;5040147;28;20029;-81
2021/12/14 01:22:45;;;;;;;18.88;14.77;;;7.90;99.90;;;;;;5007289;28;20051;-80
2021/12/14 01:25:37;;;;;;;20.20;15.25;;;7.90;99.90;;;;;;5020466;28;20035;-81
2021/12/14 01:28:07;;;;;;;18.67;13.65;;;7.90;99.90;;;;;;5020232;28;20510;-78
2021/12/14 01:30:41;;;;;;;18.27;14.40;;;7.90;99.90;;;;;;5035261;28;20428;-79
2021/12/14 01:33:12;;;;;;;16.02;13.23;;;8.00;99.90;;;;;;5037068;28;20047;-79
2021/12/14 01:35:41;;;;;;;17.52;13.60;;;8.00;99.90;;;;;;5002322;28;20108;-79
2021/12/14 01:38:21;;;;;;;16.10;12.93;;;7.90;99.90;;;;;;5020269;28;20049;-79
2021/12/14 01:40:53;;;;;;;18.17;12.52;;;7.80;99.90;;;;;;5006358;28;20128;-79
2021/12/14 01:43:30;;;;;;;16.98;12.10;;;7.90;99.90;;;;;;5019683;28;20065;-79
2021/12/14 01:45:59;;;;;;;13.68;11.05;;;7.90;99.90;;;;;;5021065;28;20398;-79
2021/12/14 01:48:25;;;;;;;13.02;10.68;;;7.90;99.90;;;;;;5019722;28;20033;-80
2021/12/14 01:50:56;;;;;;;13.88;10.98;;;7.90;99.90;;;;;;5007156;28;20060;-79
2021/12/14 01:53:24;;;;;;;12.10;10.13;;;7.90;99.90;;;;;;5003707;28;20026;-80
2021/12/14 01:55:54;;;;;;;11.82;9.82;;;7.90;99.90;;;;;;5037517;28;20041;-79
2021/12/14 01:58:25;;;;;;;12.80;9.93;;;7.90;99.90;;;;;;5009439;28;20088;-80
2021/12/14 02:01:05;;;;;;;12.60;9.88;;;7.80;99.90;;;;;;4999285;28;20030;-79
2021/12/14 02:03:35;;;;;;;12.35;9.85;;;7.80;99.90;;;;;;5030619;28;20196;-80
2021/12/14 02:06:02;;;;;;;12.23;9.32;;;7.70;99.90;;;;;;5019174;28;20060;-79
2021/12/14 02:08:32;;;;;;;9.93;7.72;;;7.60;99.90;;;;;;5016309;28;20033;-79
2021/12/14 02:11:00;;;;;;;10.30;8.10;;;7.50;99.90;;;;;;5034601;28;20048;-79
2021/12/14 02:13:47;;;;;;;9.55;7.55;;;7.60;99.90;;;;;;5035552;28;20105;-79
2021/12/14 02:16:17;;;;;;;9.57;6.85;;;7.60;99.90;;;;;;5020240;28;20064;-79
2021/12/14 02:18:46;;;;;;;5.60;4.90;;;7.60;99.90;;;;;;5019498;28;20030;-79
2021/12/14 02:21:12;;;;;;;6.85;5.15;;;7.70;99.90;;;;;;5009277;28;20038;-78
2021/12/14 02:23:41;;;;;;;6.28;4.75;;;7.60;99.90;;;;;;5018296;28;20029;-79
2021/12/14 02:26:12;;;;;;;5.80;4.35;;;7.60;99.90;;;;;;5018969;28;20075;-79
2021/12/14 02:28:38;;;;;;;4.60;3.72;;;7.80;99.90;;;;;;5019396;28;20056;-79
2021/12/14 02:31:08;;;;;;;4.88;3.70;;;7.80;99.90;;;;;;5037602;28;20029;-81
2021/12/14 02:33:38;;;;;;;4.22;3.30;;;7.80;99.90;;;;;;5019213;28;20055;-79
2021/12/14 02:36:09;;;;;;;5.43;3.40;;;7.80;99.90;;;;;;5022404;28;20026;-79
2021/12/14 02:38:43;;;;;;;5.80;3.92;;;7.80;99.90;;;;;;5023365;28;20064;-79
2021/12/14 02:41:09;;;;;;;5.47;3.95;;;7.90;99.90;;;;;;5035311;28;20030;-81
2021/12/14 02:43:45;;;;;;;4.25;3.70;;;7.80;99.90;;;;;;5033788;28;20485;-79
2021/12/14 02:46:18;;;;;;;4.85;4.05;;;7.80;99.90;;;;;;5022381;28;20200;-80
2021/12/14 02:48:47;;;;;;;7.35;4.88;;;7.70;99.90;;;;;;5020162;28;20061;-79
2021/12/14 02:51:19;;;;;;;6.22;4.70;;;7.80;99.90;;;;;;5019269;28;20033;-79
2021/12/14 02:53:47;;;;;;;6.60;5.28;;;7.90;99.90;;;;;;5037146;28;20489;-79
2021/12/14 02:56:17;;;;;;;7.85;5.70;;;7.80;99.90;;;;;;5019298;28;20026;-80
2021/12/14 02:58:44;;;;;;;7.13;5.80;;;7.70;99.90;;;;;;5019375;28;20068;-78
2021/12/14 03:01:14;;;;;;;6.85;5.30;;;7.70;99.90;;;;;;5019104;28;20041;-78
2021/12/14 03:03:40;;;;;;;7.55;5.55;;;7.70;99.90;;;;;;5019542;28;20037;-78
2021/12/14 03:06:09;;;;;;;7.43;5.93;;;7.70;99.90;;;;;;5020453;28;20079;-81
2021/12/14 03:08:43;;;;;;;9.88;6.32;;;7.60;99.90;;;;;;5029118;28;20040;-79
2021/12/14 03:11:10;;;;;;;7.88;6.10;;;7.60;99.90;;;;;;5021957;28;20394;-79
2021/12/14 03:13:48;;;;;;;8.40;6.65;;;7.60;99.90;;;;;;5018462;28;20040;-80
2021/12/14 03:16:26;;;;;;;8.18;6.35;;;7.60;99.90;;;;;;5020662;28;20428;-81
2021/12/14 03:18:53;;;;;;;8.02;6.72;;;7.60;99.90;;;;;;5020353;28;20037;-82
2021/12/14 03:21:22;;;;;;;7.80;7.00;;;7.50;99.90;;;;;;5020685;28;20088;-81
2021/12/14 03:23:52;;;;;;;8.43;7.45;;;7.50;99.90;;;;;;5018827;28;20457;-81
2021/12/14 03:26:22;;;;;;;9.52;7.03;;;7.60;99.90;;;;;;5037013;28;20037;-83
2021/12/14 03:28:51;;;;;;;8.88;7.55;;;7.50;99.90;;;;;;5019378;28;20085;-81
2021/12/14 03:31:25;;;;;;;9.02;7.70;;;7.50;99.90;;;;;;5019724;28;20064;-80
2021/12/14 03:34:02;;;;;;;8.75;7.47;;;7.50;99.90;;;;;;5018788;28;20096;-82
2021/12/14 03:36:32;;;;;;;11.18;7.53;;;7.50;99.90;;;;;;5017522;28;20033;-84
2021/12/14 03:39:13;;;;;;;9.63;7.97;;;7.40;99.90;;;;;;5019096;28;20124;-82
2021/12/14 03:41:50;;;;;;;8.95;7.35;;;7.50;99.90;;;;;;5018285;28;20591;-82
2021/12/14 03:44:23;;;;;;;9.00;7.22;;;7.50;99.90;;;;;;5018185;28;20476;-80
2021/12/14 03:46:57;;;;;;;10.47;9.03;;;7.50;99.90;;;;;;5019481;28;20034;-79
2021/12/14 03:49:31;;;;;;;10.68;8.77;;;7.40;99.90;;;;;;5019497;28;20280;-78
2021/12/14 03:51:57;;;;;;;9.63;7.90;;;7.50;99.90;;;;;;4985081;28;20509;-79
2021/12/14 03:54:23;;;;;;;8.77;7.60;;;7.50;99.90;;;;;;5001677;28;20120;-78
2021/12/14 03:56:50;;;;;;;10.85;8.82;;;7.60;99.90;;;;;;5018095;28;20033;-80
2021/12/14 03:59:17;;;;;;;10.82;8.32;;;7.60;99.90;;;;;;5036651;28;20133;-80
2021/12/14 04:01:46;;;;;;;11.45;8.13;;;7.70;99.90;;;;;;5017975;28;20040;-81
2021/12/14 04:04:44;;;;;;;10.73;8.43;;;7.60;99.90;;;;;;5018354;28;20056;-80
2021/12/14 04:07:13;;;;;;;11.18;8.77;;;7.60;99.90;;;;;;5035910;28;20048;-81
2021/12/14 04:09:40;;;;;;;10.32;8.70;;;7.60;99.90;;;;;;5036164;28;20045;-82
2021/12/14 04:12:09;;;;;;;11.07;8.80;;;7.60;99.90;;;;;;5014932;28;20025;-82
2021/12/14 04:14:43;;;;;;;10.32;9.23;;;7.50;99.90;;;;;;4998694;28;20045;-81
2021/12/14 04:17:10;;;;;;;;;;;7.50;99.90;;;;;;5040411;28;20112;-81
2021/12/14 04:19:36;;;;;;;12.80;9.30;;;7.40;99.90;;;;;;5034750;28;20311;-81
2021/12/14 04:22:07;;;;;;;13.02;9.93;;;7.50;99.90;;;;;;5038431;28;20048;-83
2021/12/14 04:24:37;;;;;;;11.00;9.27;;;7.40;99.90;;;;;;5027790;28;20061;-81
2021/12/14 04:27:08;;;;;;;11.95;9.88;;;7.40;99.90;;;;;;5036453;28;20047;-80
2021/12/14 04:29:34;;;;;;;12.27;9.50;;;7.40;99.90;;;;;;5020899;28;20370;-79
2021/12/14 04:32:00;;;;;;;12.70;10.70;;;7.50;99.90;;;;;;5022135;28;20125;-79
2021/12/14 04:34:29;;;;;;;13.70;10.57;;;7.50;99.90;;;;;;5021163;28;20029;-79
2021/12/14 04:36:55;;;;;;;14.85;11.77;;;7.50;99.90;;;;;;5017743;28;20053;-78
2021/12/14 04:53:15;;;;;;;11.00;8.88;;;7.50;99.90;;;;;;5039695;28;19956;-82
2021/12/14 04:55:43;;;;;;;11.10;9.85;;;7.50;99.90;;;;;;5020024;28;20060;-81
2021/12/14 04:58:09;;;;;;;13.02;9.50;;;7.50;99.90;;;;;;5017420;28;20033;-83
2021/12/14 05:00:40;;;;;;;10.63;9.07;;;7.40;99.90;;;;;;5016135;28;20109;-82
2021/12/14 05:03:23;;;;;;;11.30;9.60;;;7.40;99.90;;;;;;5017291;28;20033;-82
2021/12/14 05:05:57;;;;;;;11.25;9.98;;;7.40;99.90;;;;;;5015496;28;20497;-82
2021/12/14 05:11:08;;;;;;;12.55;9.85;;;7.50;99.90;;;;;;5035287;28;20037;-83
2021/12/14 05:13:38;;;;;;;10.65;9.35;;;7.50;99.90;;;;;;5035744;28;20397;-81
2021/12/14 05:16:05;;;;;;;10.85;9.30;;;7.50;99.90;;;;;;5035527;28;20109;-80
2021/12/14 05:18:30;;;;;;;12.15;8.98;;;7.40;99.90;;;;;;5019500;28;20424;-79
2021/12/14 05:20:58;;;;;;;11.52;9.70;;;7.40;99.90;;;;;;5024935;28;20044;-78
2021/12/14 05:23:28;;;;;;;11.40;9.57;;;7.30;99.90;;;;;;5034477;28;20040;-79
2021/12/14 05:25:55;;;;;;;11.38;9.98;;;7.40;99.90;;;;;;5017246;28;20417;-79
2021/12/14 05:28:22;;;;;;;11.77;9.25;;;7.30;99.90;;;;;;5034250;28;20030;-79
2021/12/14 05:30:51;;;;;;;13.52;9.55;;;7.30;99.90;;;;;;5033346;28;20022;-79
2021/12/14 05:33:25;;;;;;;12.32;9.80;;;7.20;99.90;;;;;;5018257;28;20025;-79
2021/12/14 05:35:53;;;;;;;12.32;9.90;;;7.10;99.90;;;;;;5017231;28;20377;-82
2021/12/14 05:38:41;;;;;;;12.15;9.93;;;7.00;99.90;;;;;;5017352;28;20136;-79
2021/12/14 05:43:05;;;;;;;13.35;10.50;;;7.10;99.90;;;;;;5017236;28;20044;-79
2021/12/14 05:43:54;;;;;;;11.07;8.98;;;7.10;99.90;;;;;;5033810;28;20502;-78
2021/12/14 05:46:21;;;;;;;12.68;9.63;;;7.20;99.90;;;;;;5017072;28;20039;-79
2021/12/14 05:48:47;;;;;;;10.98;8.73;;;7.20;99.90;;;;;;5000176;28;20037;-79
2021/12/14 05:51:13;;;;;;;11.20;9.07;;;7.20;99.90;;;;;;5035678;28;20084;-79
2021/12/14 05:53:45;;;;;;;10.15;7.88;;;7.30;99.90;;;;;;5003364;28;20140;-78
2021/12/14 05:56:17;;;;;;;10.93;8.57;;;7.50;99.90;;;;;;5018789;28;20461;-78
2021/12/14 05:58:48;;;;;;;10.98;8.25;;;7.40;99.90;;;;;;5022640;28;20056;-78
2021/12/14 06:01:18;;;;;;;9.55;8.18;;;7.40;99.90;;;;;;5021579;28;20429;-78
2021/12/14 06:03:54;;;;;;;10.95;8.25;;;7.30;99.90;;;;;;5021376;28;20056;-80
2021/12/14 06:06:27;;;;;;;10.45;8.10;;;7.30;99.90;;;;;;5038284;28;20523;-80
2021/12/14 06:09:03;;;;;;;10.27;7.90;;;7.40;99.90;;;;;;5020870;28;20093;-80
2021/12/14 06:11:29;;;;;;;10.40;8.23;;;7.30;99.90;;;;;;5039704;28;20061;-79
2021/12/14 06:13:55;;;;;;;9.43;7.93;;;7.40;99.90;;;;;;5022099;28;20064;-78
2021/12/14 06:16:38;;;;;;;9.45;8.45;;;7.40;99.90;;;;;;5022213;28;20030;-80
2021/12/14 06:19:18;;;;;;;10.02;7.78;;;7.40;99.90;;;;;;5023700;28;20034;-82
2021/12/14 06:21:47;;;;;;;10.07;8.13;;;7.50;99.90;;;;;;5039356;28;20108;-79
2021/12/14 06:24:13;;;;;;;10.20;7.63;;;7.50;99.90;;;;;;5024456;28;20034;-81
2021/12/14 06:26:49;;;;;;;10.07;7.47;;;7.40;99.90;;;;;;5024432;28;20083;-80
2021/12/14 06:29:21;;;;;;;9.45;7.05;;;7.40;99.90;;;;;;5022618;28;20038;-81
2021/12/14 06:31:48;;;;;;;10.00;7.75;;;7.40;99.90;;;;;;5015265;28;20033;-80
2021/12/14 06:34:27;;;;;;;10.80;7.80;;;7.30;99.90;;;;;;5018016;28;20026;-82
2021/12/14 06:37:18;;;;;;;11.27;8.15;;;7.40;99.90;;;;;;5003167;28;20034;-83
2021/12/14 06:39:58;;;;;;;11.15;8.68;;;7.40;99.90;;;;;;5004331;28;20030;-81
2021/12/14 06:42:24;;;;;;;12.75;8.43;;;7.40;99.90;;;;;;5002466;28;20080;-80
2021/12/14 06:44:50;;;;;;;10.43;8.43;;;7.50;99.90;;;;;;5028475;28;20033;-81
2021/12/14 06:47:15;;;;;;;12.70;8.98;;;7.50;99.90;;;;;;5023199;28;20033;-83
2021/12/14 06:49:41;;;;;;;14.88;9.40;;;7.60;99.90;;;;;;5041078;28;20219;-81
2021/12/14 06:52:07;;;;;;;11.68;8.98;;;7.50;99.90;;;;;;5008706;28;20083;-78
2021/12/14 06:54:33;;;;;;;14.05;8.93;;;7.50;99.90;;;;;;5020928;28;20053;-84
2021/12/14 06:57:02;;;;;;;13.32;8.82;;;7.50;99.90;;;;;;5020892;28;20033;-81
2021/12/14 06:59:28;;;;;;;14.23;9.63;;;7.50;99.90;;;;;;5026104;28;20037;-81
2021/12/14 07:01:57;;;;;;;15.00;10.10;;;7.50;99.90;;;;;;5021510;28;20038;-81
2021/12/14 07:04:26;;;;;;;11.70;9.50;;;7.50;99.90;;;;;;5019119;28;20466;-82
2021/12/14 07:06:58;;;;;;;13.82;10.20;;;7.60;99.90;;;;;;5013810;28;20063;-81
2021/12/14 07:09:28;;;;;;;13.55;9.07;;;7.50;99.90;;;;;;5010230;28;20545;-80
2021/12/14 07:12:33;;;;;;;12.38;8.48;;;7.40;99.90;;;;;;5041841;28;20033;-81
2021/12/14 07:15:02;;;;;;;12.98;8.40;;;7.40;99.90;;;;;;5041898;28;20041;-81
2021/12/14 07:17:42;;;;;;;14.05;9.63;;;7.40;99.90;;;;;;5019425;28;20036;-82
2021/12/14 07:20:11;;;;;;;11.30;9.02;;;7.30;99.90;;;;;;5020604;28;20029;-81
2021/12/14 07:22:48;;;;;;;12.82;9.32;;;7.30;99.90;;;;;;5024579;28;20497;-81
2021/12/14 07:25:23;;;;;;;12.30;8.63;;;7.30;99.90;;;;;;5019545;28;20069;-82
2021/12/14 07:28:09;;;;;;;15.23;9.70;;;7.30;99.90;;;;;;5019501;28;20034;-80
2021/12/14 07:30:46;;;;;;;10.45;8.60;;;7.30;99.90;;;;;;5026891;28;20135;-84
2021/12/14 07:33:26;;;;;;;13.65;9.32;;;7.30;99.90;;;;;;5000690;28;20040;-81
2021/12/14 07:36:03;;;;;;;12.30;9.68;;;7.20;99.90;;;;;;5028031;28;20034;-79
2021/12/14 07:38:31;;;;;;;11.93;9.30;;;7.20;99.90;;;;;;5037173;28;20029;-80
2021/12/14 07:41:10;;;;;;;12.13;9.55;;;7.20;99.90;;;;;;5016988;28;20456;-79
2021/12/14 07:44:13;;;;;;;13.27;9.32;;;7.20;99.90;;;;;;5018369;28;20033;-79
2021/12/14 07:46:42;;;;;;;13.10;9.60;;;7.20;99.90;;;;;;4998985;28;20044;-78
2021/12/14 07:49:18;;;;;;;13.20;9.07;;;7.30;99.90;;;;;;5020945;28;20091;-81
2021/12/14 07:51:44;;;;;;;11.75;9.60;;;7.20;99.90;;;;;;5038605;28;20112;-79
2021/12/14 07:54:19;;;;;;;12.45;9.52;;;7.20;99.90;;;;;;5020670;28;20030;-83
2021/12/14 07:57:02;;;;;;;13.77;8.95;;;7.20;99.90;;;;;;5020556;28;20080;-82
2021/12/14 07:59:38;;;;;;;11.68;9.52;;;7.40;99.90;;;;;;5018288;28;20052;-81
2021/12/14 08:02:15;;;;;;;12.05;9.90;;;7.30;99.90;;;;;;5035318;28;20038;-83
2021/12/14 08:04:57;;;;;;;13.80;10.35;;;7.20;99.90;;;;;;5017454;28;20071;-81
2021/12/14 08:07:33;;;;;;;14.45;9.60;;;7.30;99.90;;;;;;5017687;28;20042;-81
2021/12/14 08:10:15;;;;;;;12.88;10.25;;;7.30;99.90;;;;;;5037876;28;20135;-79
2021/12/14 08:12:45;;;;;;;15.95;11.27;;;7.20;99.90;;;;;;5019154;28;20044;-79
2021/12/14 08:15:17;;;;;;;13.75;10.40;;;7.20;99.90;;;;;;5005025;28;20044;-79
2021/12/14 08:17:44;;;;;;;12.73;9.48;;;7.20;99.90;;;;;;5010728;28;20039;-79
2021/12/14 08:20:19;;;;;;;12.40;9.38;;;7.30;99.90;;;;;;5018956;28;20068;-79
2021/12/14 08:22:48;;;;;;;13.52;10.00;;;7.20;99.90;;;;;;5023072;28;20056;-80
2021/12/14 08:25:24;;;;;;;17.30;10.60;;;7.30;99.90;;;;;;5017996;28;20038;-80
2021/12/14 08:28:00;;;;;;;13.05;9.88;;;7.30;99.90;;;;;;5004186;28;20059;-80
2021/12/14 08:30:27;;;;;;;13.63;10.40;;;7.20;99.90;;;;;;5028809;28;20036;-80
2021/12/14 08:32:53;;;;;;;12.48;9.63;;;7.20;99.90;;;;;;4999002;28;20026;-79
2021/12/14 08:35:18;;;;;;;21.27;13.25;;;7.30;99.90;;;;;;5002232;28;20040;-79
2021/12/14 08:37:50;;;;;;;15.00;11.55;;;7.30;99.90;;;;;;5017931;28;20460;-78
2021/12/14 08:40:23;;;;;;;12.55;10.10;;;7.30;99.90;;;;;;5003743;28;20088;-79
2021/12/14 08:43:30;;;;;;;15.93;11.52;;;7.40;99.90;;;;;;5030832;28;20041;-80
2021/12/14 08:46:04;;;;;;;14.02;10.38;;;7.50;99.90;;;;;;5007898;28;20037;-79
2021/12/14 08:48:34;;;;;;;14.00;10.85;;;7.30;99.90;;;;;;5018652;28;20061;-79
2021/12/14 08:51:14;;;;;;;13.32;9.93;;;7.20;99.90;;;;;;5004930;28;20046;-78
2021/12/14 08:53:45;;;;;;;14.43;10.45;;;7.30;99.90;;;;;;5018143;28;20048;-79
2021/12/14 08:56:13;;;;;;;15.38;10.82;;;7.40;99.90;;;;;;5018383;28;20033;-79
2021/12/14 08:58:40;;;;;;;13.88;10.88;;;7.30;99.90;;;;;;5002357;28;20034;-79
2021/12/14 09:01:13;;;;;;;14.02;10.95;;;7.30;99.90;;;;;;5015611;28;20052;-81
2021/12/14 09:03:45;;;;;;;15.10;11.02;;;7.40;99.90;;;;;;5009849;28;20029;-78
2021/12/14 09:06:14;;;;;;;13.95;9.93;;;7.20;99.90;;;;;;5023598;28;20033;-81
2021/12/14 09:08:42;;;;;;;14.90;11.52;;;7.40;99.90;;;;;;5034297;28;20033;-79
2021/12/14 09:11:09;;;;;;;15.73;11.63;;;7.50;99.90;;;;;;5018555;28;20025;-79
2021/12/14 09:13:36;;;;;;;15.07;11.48;;;7.40;99.90;;;;;;5036395;28;20093;-79
2021/12/14 09:16:07;;;;;;;16.45;11.32;;;7.40;99.90;;;;;;5016636;28;20117;-80
2021/12/14 09:18:37;;;;;;;14.43;10.65;;;7.50;99.90;;;;;;5036186;28;20041;-80
2021/12/14 09:21:11;;;;;;;15.43;11.45;;;7.40;99.90;;;;;;5018722;28;20038;-81
2021/12/14 09:23:43;;;;;;;19.20;13.85;;;7.50;99.90;;;;;;5021808;28;20041;-84
2021/12/14 09:26:20;;;;;;;15.95;11.43;;;7.50;99.90;;;;;;5006889;28;20033;-80
2021/12/14 09:28:47;;;;;;;16.05;11.98;;;7.40;99.90;;;;;;5022777;28;20034;-81
2021/12/14 09:31:19;;;;;;;17.30;11.65;;;7.30;99.90;;;;;;5047397;28;20109;-79
2021/12/14 09:33:45;;;;;;;16.58;12.07;;;7.40;99.90;;;;;;5009547;28;20041;-80
2021/12/14 09:36:13;;;;;;;16.10;11.50;;;7.40;99.90;;;;;;5026194;28;20485;-80
2021/12/14 09:38:56;;;;;;;17.20;12.25;;;7.50;99.90;;;;;;5025081;28;20049;-81
2021/12/14 09:41:26;;;;;;;16.25;12.60;;;7.60;99.90;;;;;;5010427;28;20037;-81
2021/12/14 09:43:54;;;;;;;17.00;13.05;;;7.70;99.90;;;;;;5023947;28;20036;-80
2021/12/14 09:46:21;;;;;;;16.98;12.77;;;7.80;99.90;;;;;;5024177;28;20033;-82
2021/12/14 09:48:53;;;;;;;20.15;12.93;;;7.90;99.90;;;;;;5023346;28;20405;-83
2021/12/14 09:51:42;;;;;;;16.45;12.15;;;7.80;99.90;;;;;;5006583;28;20033;-82
2021/12/14 09:54:14;;;;;;;20.83;11.40;;;7.80;99.90;;;;;;5038544;28;20061;-82
2021/12/14 09:56:58;;;;;;;19.85;12.02;;;7.70;99.90;;;;;;5022076;28;20026;-82
2021/12/14 09:59:24;;;;;;;17.58;11.57;;;7.80;99.90;;;;;;5020660;28;20030;-79
2021/12/14 10:01:59;;;;;;;16.83;12.38;;;7.80;99.90;;;;;;5018087;28;20046;-79
2021/12/14 10:04:34;;;;;;;14.20;11.85;;;7.90;99.90;;;;;;5018173;28;20037;-79
2021/12/14 10:07:03;;;;;;;18.73;12.57;;;7.90;99.90;;;;;;5020712;28;20441;-78
2021/12/14 10:09:38;;;;;;;16.67;12.35;;;7.90;99.90;;;;;;5001370;28;20667;-81
2021/12/14 10:12:41;;;;;;;16.77;12.25;;;8.00;99.90;;;;;;5005609;28;20781;-81
2021/12/14 10:15:05;;;;;;;14.98;11.50;;;7.90;99.90;;;;;;5013747;28;20089;-82
2021/12/14 10:17:31;;;;;;;14.52;11.68;;;7.90;99.90;;;;;;5034773;28;20071;-82
2021/12/14 10:19:57;;;;;;;19.40;13.32;;;7.90;99.90;;;;;;5024510;28;20034;-78
2021/12/14 10:22:30;;;;;;;13.60;11.27;;;7.90;99.90;;;;;;5021600;28;20167;-78
2021/12/14 10:25:02;;;;;;;17.40;12.20;;;8.00;99.90;;;;;;5021483;28;20075;-79
2021/12/14 10:27:31;;;;;;;14.52;11.77;;;8.00;99.90;;;;;;5039534;28;20025;-79
2021/12/14 10:29:59;;;;;;;16.55;12.80;;;8.00;99.90;;;;;;5021350;28;20040;-79
2021/12/14 10:32:29;;;;;;;14.73;11.43;;;8.00;99.90;;;;;;5022441;28;20021;-79
2021/12/14 10:35:00;;;;;;;16.15;12.00;;;8.10;99.90;;;;;;5023893;28;20037;-79
2021/12/14 10:37:39;;;;;;;17.98;12.30;;;8.00;99.90;;;;;;5025992;28;20052;-80
2021/12/14 10:43:12;;;;;;;15.93;11.73;;;8.00;99.90;;;;;;5027829;28;20041;-83
2021/12/14 10:45:42;;;;;;;17.30;12.57;;;8.10;99.90;;;;;;5027962;28;20045;-82
2021/12/14 10:48:08;;;;;;;19.38;12.77;;;8.10;99.90;;;;;;5023406;28;20087;-81
2021/12/14 10:50:36;;;;;;;17.13;12.85;;;8.10;99.90;;;;;;5007677;28;20105;-83
2021/12/14 10:53:04;;;;;;;16.40;12.23;;;8.10;99.90;;;;;;5021889;28;20029;-81
2021/12/14 10:55:35;;;;;;;15.90;12.55;;;8.10;99.90;;;;;;5005867;28;20036;-82
2021/12/14 10:58:04;;;;;;;15.95;12.45;;;8.00;99.90;;;;;;5006239;28;20116;-83
2021/12/14 11:00:56;;;;;;;16.88;12.13;;;8.10;99.90;;;;;;5041061;28;20104;-81
2021/12/14 11:03:29;;;;;;;16.27;12.10;;;8.10;99.90;;;;;;5026809;28;20594;-82
2021/12/14 11:05:59;;;;;;;19.08;12.82;;;8.20;99.90;;;;;;5038153;28;20503;-80
2021/12/14 11:08:43;;;;;;;18.13;12.80;;;8.20;99.90;;;;;;5004230;28;20034;-79
2021/12/14 11:11:19;;;;;;;15.93;12.52;;;8.30;99.90;;;;;;5022590;28;20052;-78
2021/12/14 11:13:53;;;;;;;20.90;13.50;;;8.40;99.90;;;;;;5021868;28;20033;-81
2021/12/14 11:18:08;;;;;;;15.73;12.93;;;8.50;99.90;;;;;;5038552;28;20112;-82
2021/12/14 11:19:30;;;;;;;16.50;12.40;;;8.50;99.90;;;;;;5040128;28;20493;-80
2021/12/14 11:22:16;;;;;;;18.42;13.00;;;8.50;99.90;;;;;;5024398;28;20025;-79
2021/12/14 11:24:46;;;;;;;15.68;12.18;;;8.40;99.90;;;;;;5023813;28;20049;-80
2021/12/14 11:27:24;;;;;;;16.27;11.68;;;8.40;99.90;;;;;;5021423;28;20074;-82
2021/12/14 11:30:05;;;;;;;19.85;12.63;;;8.40;99.90;;;;;;5019631;28;20044;-81
2021/12/14 11:32:30;;;;;;;17.77;14.00;;;8.20;99.90;;;;;;5021198;28;20030;-81
2021/12/14 11:34:56;;;;;;;16.52;13.30;;;8.20;99.90;;;;;;5021394;28;20043;-84
2021/12/14 11:37:32;;;;;;;17.65;13.40;;;8.20;99.90;;;;;;5018920;28;20049;-84
2021/12/14 11:39:58;;;;;;;17.65;13.75;;;8.20;99.90;;;;;;5022392;28;20033;-78
2021/12/14 11:42:26;;;;;;;18.65;13.80;;;8.20;99.90;;;;;;5005604;28;20061;-80
2021/12/14 11:44:54;;;;;;;16.73;13.05;;;8.20;99.90;;;;;;5039590;28;20041;-78
2021/12/14 11:48:03;;;;;;;18.30;14.07;;;8.20;99.90;;;;;;5039649;28;20033;-83
2021/12/14 11:50:32;;;;;;;19.27;13.95;;;8.20;99.90;;;;;;5024230;28;20038;-79
2021/12/14 11:53:09;;;;;;;18.63;13.98;;;8.10;99.90;;;;;;5019457;28;20041;-79
2021/12/14 11:55:40;;;;;;;19.92;14.05;;;8.10;99.90;;;;;;5025849;28;20033;-80
2021/12/14 11:58:11;;;;;;;19.13;14.68;;;8.10;99.90;;;;;;5026125;28;20029;-79
2021/12/14 12:00:44;;;;;;;20.05;14.93;;;8.00;99.90;;;;;;5043412;28;20061;-82
2021/12/14 12:03:27;;;;;;;17.38;13.43;;;8.00;99.90;;;;;;5021584;28;20033;-82
2021/12/14 12:06:07;;;;;;;19.83;14.27;;;8.00;99.90;;;;;;5021480;28;20047;-82
2021/12/14 12:11:21;;;;;;;21.33;15.40;;;8.10;99.90;;;;;;5023388;28;20037;-83
2021/12/14 12:13:48;;;;;;;18.15;14.30;;;8.10;99.90;;;;;;5022046;28;20036;-83
2021/12/14 12:16:19;;;;;;;19.63;14.38;;;8.20;99.90;;;;;;5017197;28;20036;-83
2021/12/14 12:19:06;;;;;;;20.13;14.80;;;8.40;99.90;;;;;;5029996;28;20631;-82
2021/12/14 12:21:32;;;;;;;21.48;14.65;;;8.40;99.90;;;;;;5034433;28;20045;-81
2021/12/14 12:23:59;;;;;;;20.15;14.77;;;8.40;99.90;;;;;;5004552;28;20056;-82
2021/12/14 12:26:29;;;;;;;20.67;15.52;;;8.40;99.90;;;;;;5014735;28;20041;-81
2021/12/14 12:29:01;;;;;;;19.65;15.25;;;8.40;99.90;;;;;;5008850;28;20033;-82
2021/12/14 12:31:32;;;;;;;23.08;15.88;;;8.40;99.90;;;;;;5020782;28;20029;-84
2021/12/14 12:33:59;;;;;;;17.98;14.18;;;8.40;99.90;;;;;;5018658;28;20022;-82
2021/12/14 12:36:32;;;;;;;20.98;15.77;;;8.40;99.90;;;;;;5009711;28;20113;-82
2021/12/14 12:39:21;;;;;;;20.48;15.20;;;8.40;99.90;;;;;;5015359;28;20047;-81
2021/12/14 12:41:58;;;;;;;21.63;15.98;;;8.40;99.90;;;;;;5017739;28;20076;-80
2021/12/14 12:44:39;;;;;;;;;;;;;;;;;;;;;
2021/12/14 12:47:20;;;;;;;20.60;16.05;;;8.50;99.90;;;;;;5032697;28;20543;-83
2021/12/14 12:49:54;;;;;;;21.77;16.33;;;8.40;99.90;;;;;;5007718;28;20055;-82
2021/12/14 12:52:30;;;;;;;20.40;16.30;;;8.30;99.90;;;;;;5016270;28;20064;-83
2021/12/14 12:55:04;;;;;;;20.45;15.68;;;8.40;99.90;;;;;;5035531;28;20025;-83
2021/12/14 12:57:47;;;;;;;21.17;16.50;;;8.50;99.90;;;;;;5014228;28;20030;-82
2021/12/14 13:00:16;;;;;;;23.95;17.42;;;8.50;99.90;;;;;;5020346;28;20064;-81
2021/12/14 13:02:51;;;;;;;23.33;17.42;;;8.50;99.90;;;;;;5034233;28;20037;-81
2021/12/14 13:05:16;;;;;;;;;;;8.50;99.90;;;;;;5018011;28;20030;-81
2021/12/14 13:07:46;;;;;;;22.77;17.13;;;8.40;99.90;;;;;;5042176;28;19916;-80
2021/12/14 13:10:27;;;;;;;25.60;18.58;;;8.50;99.90;;;;;;5025124;28;20033;-81
2021/12/14 13:13:16;;;;;;;25.27;17.85;;;8.40;99.90;;;;;;5021219;28;20029;-82
2021/12/14 13:16:10;;;;;;;23.15;17.83;;;8.40;99.90;;;;;;5021257;28;20056;-83
2021/12/14 13:18:59;;;;;;;24.55;18.50;;;8.40;99.90;;;;;;5024871;28;20064;-82
2021/12/14 13:21:45;;;;;;;23.42;17.45;;;8.40;99.90;;;;;;5015370;28;20036;-81
2021/12/14 13:24:31;;;;;;;26.02;19.00;;;8.40;99.90;;;;;;5040108;28;20022;-82
2021/12/14 13:27:22;;;;;;;24.70;17.63;;;8.50;99.90;;;;;;5024705;28;20503;-81
2021/12/14 13:29:52;;;;;;;25.42;19.08;;;8.40;99.90;;;;;;5007467;28;20038;-81
2021/12/14 13:32:29;;;;;;;24.13;17.95;;;8.30;99.90;;;;;;5008261;28;20026;-81
2021/12/14 13:34:58;;;;;;;25.20;18.75;;;8.40;99.90;;;;;;5025324;28;20091;-81
2021/12/14 13:37:38;;;;;;;26.63;18.67;;;8.40;99.90;;;;;;5040711;28;20497;-83
2021/12/14 13:40:09;;;;;;;26.70;18.55;;;8.40;99.90;;;;;;5040088;28;20044;-84